Terminal Aerodrome Forecast
Issued by NWS

Home | Current Version | Previous Version | Graphics & Text | Print | Product List | Glossary On
Versions: 1 2 3 4 5 6 7 8 9 10 11 12 13 14 15 16 17 18 19 20 21 22 23
000
FTUS43 KMPX 031131
TAFRWF
TAF
KRWF 031131Z 0312/0412 10004KT 1SM BR OVC003
      TEMPO 0312/0314 5SM BR SCT004
     FM031400 15011KT P6SM SCT015
     FM040600 13007KT 6SM BR FEW004=

USA.gov is the U.S. government's official web portal to all federal, state and local government web resources and services.